createdAt,value
2023-11-18T00:02:35.989Z,20.30
2023-11-18T00:06:33.830Z,18.20
2023-11-18T00:10:31.854Z,17.30
2023-11-18T00:14:29.826Z,18.70
2023-11-18T00:18:27.785Z,18.70
2023-11-18T00:22:25.918Z,20.10
2023-11-18T00:26:23.741Z,18.30
2023-11-18T00:30:23.845Z,19.80
2023-11-18T00:34:21.787Z,18.30
2023-11-18T00:38:19.749Z,18.00
2023-11-18T00:42:17.785Z,19.50
2023-11-18T00:46:15.815Z,20.10
2023-11-18T00:50:15.779Z,18.90
2023-11-18T00:54:13.863Z,18.90
2023-11-18T00:58:12.693Z,20.80
2023-11-18T01:02:12.763Z,19.70
2023-11-18T01:06:10.741Z,18.70
2023-11-18T01:10:08.724Z,21.30
2023-11-18T01:14:06.741Z,18.60
2023-11-18T01:18:04.745Z,19.50
2023-11-18T01:22:02.734Z,21.10
2023-11-18T01:26:00.799Z,19.30
2023-11-18T01:29:58.663Z,20.70
2023-11-18T01:33:57.764Z,22.50
2023-11-18T01:37:55.814Z,23.40
2023-11-18T01:41:53.665Z,20.10
2023-11-18T01:45:51.804Z,18.90
2023-11-18T01:49:52.718Z,24.10
2023-11-18T01:53:52.684Z,16.30
2023-11-18T01:57:51.672Z,18.80
2023-11-18T02:01:50.696Z,17.50
2023-11-18T02:05:49.658Z,19.70
2023-11-18T02:09:48.624Z,19.20
2023-11-18T02:13:50.678Z,17.30
2023-11-18T02:17:49.775Z,19.60
2023-11-18T02:21:47.608Z,18.50
2023-11-18T02:25:48.624Z,19.10
2023-11-18T02:29:49.693Z,19.20
2023-11-18T02:33:55.685Z,20.30
2023-11-18T02:37:59.741Z,18.60
2023-11-18T02:41:57.573Z,16.90
2023-11-18T02:45:56.624Z,16.40
2023-11-18T02:49:56.624Z,18.00
2023-11-18T02:53:54.585Z,18.20
2023-11-18T02:57:54.591Z,17.90
2023-11-18T03:01:52.631Z,16.90
2023-11-18T03:05:50.574Z,16.80
2023-11-18T03:09:48.584Z,15.00
2023-11-18T03:13:46.530Z,15.90
2023-11-18T03:17:44.613Z,14.20
2023-11-18T03:21:42.523Z,14.30
2023-11-18T03:25:40.588Z,14.80
2023-11-18T03:29:38.551Z,17.10
2023-11-18T03:33:36.551Z,14.80
2023-11-18T03:37:35.553Z,16.20
2023-11-18T03:41:33.593Z,15.40
2023-11-18T03:45:31.519Z,14.60
2023-11-18T03:49:29.522Z,14.20
2023-11-18T03:53:27.477Z,14.00
2023-11-18T03:57:25.533Z,15.20
2023-11-18T04:01:23.544Z,14.30
2023-11-18T04:05:22.514Z,16.00
2023-11-18T04:09:20.476Z,12.90
2023-11-18T04:13:18.467Z,15.40
2023-11-18T04:17:16.593Z,14.70
2023-11-18T04:21:15.502Z,15.40
2023-11-18T04:25:14.435Z,15.90
2023-11-18T04:29:14.505Z,14.70
2023-11-18T04:33:12.413Z,13.50
2023-11-18T04:37:10.466Z,13.10
2023-11-18T04:41:08.496Z,14.10
2023-11-18T04:45:06.617Z,15.20
2023-11-18T04:49:04.499Z,14.50
2023-11-18T04:53:02.443Z,13.60
2023-11-18T04:57:00.394Z,14.30
2023-11-18T05:00:58.419Z,15.90
2023-11-18T05:04:56.435Z,14.40
2023-11-18T05:08:54.481Z,14.50
2023-11-18T05:13:01.422Z,16.20
2023-11-18T05:16:59.496Z,14.20
2023-11-18T05:20:57.410Z,13.00
2023-11-18T05:24:55.417Z,15.60
2023-11-18T05:28:53.461Z,13.30
2023-11-18T05:32:51.424Z,16.00
2023-11-18T05:36:49.341Z,12.20
2023-11-18T05:40:50.426Z,14.70
2023-11-18T05:44:49.329Z,15.00
2023-11-18T05:48:47.349Z,15.40
2023-11-18T05:52:45.419Z,15.40
2023-11-18T05:56:43.351Z,19.30
2023-11-18T06:00:42.062Z,16.70
2023-11-18T06:04:40.346Z,22.20
2023-11-18T06:08:40.314Z,16.80
2023-11-18T06:12:39.347Z,15.30
2023-11-18T06:16:40.698Z,17.80
2023-11-18T06:20:40.389Z,21.10
2023-11-18T06:24:38.300Z,21.80
2023-11-18T06:28:36.303Z,17.90
2023-11-18T06:32:34.306Z,18.30
2023-11-18T06:36:34.308Z,17.70
2023-11-18T06:40:34.313Z,20.40
2023-11-18T06:44:32.318Z,17.80
2023-11-18T06:48:30.297Z,20.80
2023-11-18T06:52:29.274Z,21.80
2023-11-18T06:56:27.250Z,20.90
2023-11-18T07:00:25.246Z,20.20
2023-11-18T07:04:23.256Z,20.60
2023-11-18T07:08:21.305Z,20.40
2023-11-18T07:12:19.246Z,22.20
2023-11-18T07:16:17.301Z,22.10
2023-11-18T07:20:15.229Z,23.90
2023-11-18T07:24:13.494Z,23.10
2023-11-18T07:28:13.233Z,22.70
2023-11-18T07:32:13.323Z,20.00
2023-11-18T07:36:13.264Z,17.60
2023-11-18T07:40:12.221Z,18.90
2023-11-18T07:44:10.312Z,21.80
2023-11-18T07:48:08.349Z,20.50
2023-11-18T07:52:06.214Z,21.30
2023-11-18T07:56:04.265Z,20.10
2023-11-18T08:00:02.188Z,21.80
2023-11-18T08:04:04.260Z,25.90
2023-11-18T08:08:02.143Z,21.80
2023-11-18T08:12:03.163Z,18.70
2023-11-18T08:16:01.261Z,21.70
2023-11-18T08:19:59.171Z,21.40
2023-11-18T08:23:57.106Z,18.30
2023-11-18T08:27:56.186Z,19.90
2023-11-18T08:31:55.194Z,23.60
2023-11-18T08:35:54.129Z,19.80
2023-11-18T08:39:52.152Z,24.50
2023-11-18T08:43:50.197Z,23.10
2023-11-18T08:47:48.117Z,20.40
2023-11-18T08:51:46.131Z,26.80
2023-11-18T08:55:48.082Z,18.60
2023-11-18T08:59:46.167Z,20.40
2023-11-18T09:03:44.256Z,21.20
2023-11-18T09:07:42.168Z,24.00
2023-11-18T09:11:41.070Z,24.20
2023-11-18T09:15:39.091Z,22.60
2023-11-18T09:19:38.116Z,22.10
2023-11-18T09:23:39.150Z,18.00
2023-11-18T09:27:37.064Z,16.70
2023-11-18T09:31:35.191Z,20.30
2023-11-18T09:35:33.047Z,19.00
2023-11-18T09:39:45.055Z,18.30
2023-11-18T09:43:50.165Z,22.50
2023-11-18T09:47:55.097Z,22.50
2023-11-18T09:51:55.055Z,19.10
2023-11-18T09:56:08.067Z,21.40
2023-11-18T10:00:28.260Z,21.60
2023-11-18T10:04:28.091Z,19.80
2023-11-18T10:08:26.080Z,21.40
2023-11-18T10:12:32.044Z,18.10
2023-11-18T10:16:34.989Z,20.90
2023-11-18T10:20:36.083Z,21.20
2023-11-18T10:24:33.953Z,19.60
2023-11-18T10:28:40.018Z,19.80
2023-11-18T10:32:38.071Z,20.40
2023-11-18T10:36:41.038Z,20.00
2023-11-18T10:40:38.953Z,20.60
2023-11-18T10:44:37.041Z,22.00
2023-11-18T10:48:34.945Z,21.60
2023-11-18T10:52:33.966Z,21.50
2023-11-18T10:56:38.929Z,21.60
2023-11-18T11:00:40.975Z,22.90
2023-11-18T11:04:38.928Z,24.40
2023-11-18T11:12:37.913Z,24.70
2023-11-18T11:16:40.937Z,26.30
2023-11-18T11:20:40.924Z,26.40
2023-11-18T11:24:57.000Z,25.60
2023-11-18T11:29:21.272Z,21.40
2023-11-18T11:33:30.892Z,23.70
2023-11-18T11:37:31.030Z,22.30
2023-11-18T11:41:33.970Z,24.00
2023-11-18T11:45:35.899Z,20.10
2023-11-18T11:49:37.858Z,26.40
2023-11-18T11:53:40.971Z,26.10
2023-11-18T11:57:40.875Z,22.90
2023-11-18T12:01:42.866Z,22.90
2023-11-18T12:05:41.906Z,28.70
2023-11-18T12:09:46.897Z,22.00
2023-11-18T12:13:46.915Z,21.30
2023-11-18T12:17:45.872Z,19.80
2023-11-18T12:22:09.830Z,19.50
2023-11-18T12:26:10.867Z,22.50
2023-11-18T12:30:08.827Z,20.40
2023-11-18T12:34:07.791Z,24.10
2023-11-18T12:38:42.829Z,21.60
2023-11-18T12:43:14.984Z,23.00
2023-11-18T12:47:25.893Z,23.00
2023-11-18T12:51:27.814Z,24.30
2023-11-18T12:55:28.800Z,29.60
2023-11-18T12:59:26.831Z,33.60
2023-11-18T13:03:25.901Z,34.50
2023-11-18T13:07:24.757Z,31.90
2023-11-18T13:11:23.836Z,33.10
2023-11-18T13:15:23.803Z,34.50
2023-11-18T13:19:21.765Z,37.60
2023-11-18T13:23:19.798Z,34.30
2023-11-18T13:27:17.878Z,34.10
2023-11-18T13:31:17.823Z,33.70
2023-11-18T13:35:17.839Z,38.00
2023-11-18T13:39:16.741Z,37.40
2023-11-18T13:43:18.742Z,41.40
2023-11-18T13:47:19.786Z,38.30
2023-11-18T13:51:20.742Z,44.50
2023-11-18T13:55:22.718Z,42.20
2023-11-18T13:59:20.793Z,37.10
2023-11-18T14:03:19.840Z,38.60
2023-11-18T14:07:19.689Z,34.80
2023-11-18T14:11:18.231Z,37.70
2023-11-18T14:15:17.712Z,35.80
2023-11-18T14:19:15.714Z,37.10
2023-11-18T14:23:13.719Z,38.10
2023-11-18T14:27:12.678Z,48.60
2023-11-18T14:31:11.784Z,42.60
2023-11-18T14:35:09.704Z,41.00
2023-11-18T14:39:07.736Z,39.50
2023-11-18T14:43:05.682Z,41.60
2023-11-18T14:47:03.792Z,45.10
2023-11-18T14:51:02.715Z,40.40
2023-11-18T14:55:00.628Z,41.80
2023-11-18T14:58:58.678Z,43.10
2023-11-18T15:02:59.374Z,42.80
2023-11-18T15:07:00.616Z,49.50
2023-11-18T15:10:58.620Z,50.20
2023-11-18T15:14:56.623Z,52.60
2023-11-18T15:18:55.657Z,53.10
2023-11-18T15:22:53.683Z,51.40
2023-11-18T15:26:52.377Z,51.20
2023-11-18T15:30:51.751Z,51.70
2023-11-18T15:34:49.649Z,48.60
2023-11-18T15:38:47.710Z,49.90
2023-11-18T15:42:45.579Z,48.90
2023-11-18T15:46:45.599Z,45.70
2023-11-18T15:50:45.570Z,45.40
2023-11-18T15:54:44.560Z,44.00
2023-11-18T15:58:43.582Z,43.20
2023-11-18T16:02:41.566Z,45.60
2023-11-18T16:06:39.571Z,49.80
2023-11-18T16:10:39.652Z,53.00
2023-11-18T16:14:37.695Z,56.30
2023-11-18T16:18:35.548Z,58.60
2023-11-18T16:22:33.516Z,55.70
2023-11-18T16:26:31.570Z,53.30
2023-11-18T16:30:32.593Z,51.00
2023-11-18T16:34:30.510Z,62.10
2023-11-18T16:38:28.626Z,54.90
2023-11-18T16:42:27.461Z,51.80
2023-11-18T16:46:26.567Z,55.60
2023-11-18T16:50:27.750Z,57.10
2023-11-18T16:54:36.044Z,52.00
2023-11-18T16:58:38.500Z,60.70
2023-11-18T17:02:36.607Z,57.70
2023-11-18T17:06:34.447Z,53.40
2023-11-18T17:10:32.489Z,50.60
2023-11-18T17:14:30.475Z,59.50
2023-11-18T17:18:28.543Z,56.80
2023-11-18T17:22:26.469Z,61.60
2023-11-18T17:26:24.463Z,59.50
2023-11-18T17:30:23.563Z,55.90
2023-11-18T17:34:21.444Z,51.80
2023-11-18T17:38:19.444Z,54.10
2023-11-18T17:42:17.471Z,50.10
2023-11-18T17:46:18.433Z,49.00
2023-11-18T17:50:20.461Z,50.20
2023-11-18T17:54:18.420Z,48.30
2023-11-18T17:58:18.390Z,43.30
2023-11-18T18:02:19.408Z,40.70
2023-11-18T18:06:17.377Z,41.70
2023-11-18T18:10:16.347Z,36.90
2023-11-18T18:14:15.379Z,36.50
2023-11-18T18:18:13.397Z,38.00
2023-11-18T18:22:11.366Z,34.30
2023-11-18T18:26:09.335Z,36.00
2023-11-18T18:30:07.377Z,44.60
2023-11-18T18:34:05.340Z,42.80
2023-11-18T18:38:03.396Z,42.70
2023-11-18T18:42:01.328Z,41.30
2023-11-18T18:45:59.465Z,39.30
2023-11-18T18:49:57.340Z,39.60
2023-11-18T18:53:55.365Z,41.30
2023-11-18T18:57:53.344Z,40.00
2023-11-18T19:01:52.358Z,38.60
2023-11-18T19:05:50.271Z,43.20
2023-11-18T19:09:49.327Z,45.20
2023-11-18T19:13:47.278Z,47.60
2023-11-18T19:17:45.435Z,47.30
2023-11-18T19:21:43.250Z,55.60
2023-11-18T19:25:41.294Z,53.30
2023-11-18T19:29:41.404Z,48.40
2023-11-18T19:33:40.269Z,51.90
2023-11-18T19:37:38.249Z,52.60
2023-11-18T19:41:36.331Z,55.80
2023-11-18T19:45:34.352Z,52.30
2023-11-18T19:49:33.298Z,55.10
2023-11-18T19:53:31.265Z,63.70
2023-11-18T19:57:29.249Z,59.90
2023-11-18T20:01:30.250Z,51.30
2023-11-18T20:05:28.259Z,53.30
2023-11-18T20:09:26.186Z,53.30
2023-11-18T20:13:24.242Z,48.80
2023-11-18T20:17:22.227Z,55.10
2023-11-18T20:21:20.253Z,63.50
2023-11-18T20:25:18.219Z,60.00
2023-11-18T20:29:16.248Z,59.70
2023-11-18T20:33:14.264Z,55.70
2023-11-18T20:37:13.205Z,57.10
2023-11-18T20:41:11.231Z,54.50
2023-11-18T20:45:09.210Z,46.20
2023-11-18T20:49:07.139Z,39.00
2023-11-18T20:53:05.658Z,40.90
2023-11-18T20:57:03.170Z,45.10
2023-11-18T21:01:07.811Z,47.80
2023-11-18T21:05:06.915Z,52.10
2023-11-18T21:09:05.119Z,47.10
2023-11-18T21:13:03.130Z,55.80
2023-11-18T21:17:08.469Z,43.00
2023-11-18T21:21:07.134Z,46.70
2023-11-18T21:25:05.115Z,49.90
2023-11-18T21:29:03.128Z,50.80
2023-11-18T21:33:03.235Z,52.30
2023-11-18T21:37:01.090Z,56.60
2023-11-18T21:40:59.125Z,52.30
2023-11-18T21:44:57.108Z,57.90
2023-11-18T21:48:55.134Z,59.70
2023-11-18T21:52:53.106Z,53.30
2023-11-18T21:56:51.182Z,54.80
2023-11-18T22:00:49.065Z,60.70
2023-11-18T22:04:47.091Z,53.80
2023-11-18T22:08:45.129Z,58.80
2023-11-18T22:12:43.052Z,61.70
2023-11-18T22:16:41.125Z,64.20
2023-11-18T22:20:39.150Z,68.00
2023-11-18T22:24:37.170Z,62.50
2023-11-18T22:28:39.058Z,60.50
2023-11-18T22:32:37.063Z,65.00
2023-11-18T22:36:35.093Z,70.50
2023-11-18T22:40:34.001Z,68.10
2023-11-18T22:44:35.435Z,70.40
2023-11-18T22:48:34.013Z,64.30
2023-11-18T22:52:33.012Z,70.00
2023-11-18T22:56:31.048Z,59.70
2023-11-18T23:00:45.084Z,71.70
2023-11-18T23:04:42.986Z,77.80
2023-11-18T23:08:50.995Z,62.50
2023-11-18T23:12:48.940Z,73.30
2023-11-18T23:16:47.011Z,61.80
2023-11-18T23:20:45.950Z,66.60
2023-11-18T23:24:44.971Z,70.60
2023-11-18T23:28:42.954Z,60.30
2023-11-18T23:32:41.008Z,56.20
2023-11-18T23:36:39.004Z,59.40
2023-11-18T23:40:37.003Z,72.90
2023-11-18T23:44:35.964Z,70.80
2023-11-18T23:48:33.955Z,73.40
2023-11-18T23:52:31.900Z,79.00
2023-11-18T23:56:29.940Z,98.70
